Tiempo atmosférico en la estación meteorológica de Polinyà de Xúquer, València/Valencia (12 m.)



Fecha
DESCASC
Temp. máxima en grados centígrados (hora)
DESCASC
Temp. mínima en grados centígrados (hora)
DESCASC
Temp. media en grados centígrados
DESCASC
Racha de viento máxima en m/sg (hora)
DESCASC
Velocidad máxima media en intervalos de 10 minutos(hora)
DESCASC
Precipitaciones diarias en mm
DESCASC
Precipitaciones de 00:00 a 06:00 en mm
DESCASC
Precipitaciones de 06:00 a 12:00 en mm
DESCASC
Precipitaciones de 12:00 a 18:00 en mm
DESCASC
Precipitaciones de 18:00 a 24:00 en mm
DESCASC
19-09-2019 26.5 (14:30) 18.1 (08:00) 22.3 6.11 (18:00) 3.33 (17:50) 0 0 0 0 0
18-09-2019 29 (13:10) 19.3 (06:30) 24.1 8.33 (16:00) 4.17 (15:20) 0 0 0 0 0
17-09-2019 27.5 (13:30) 19.7 (00:00) 23.6 6.39 (18:20) 3.33 (18:20) 0 0 0 0 0
16-09-2019 27.2 (16:10) 20.7 (00:00) 24 6.11 (01:40) 3.06 (01:50) 0.7 0.7 0 0 0
15-09-2019 25.4 (15:00) 21.7 (00:00) 23.6 10.83 (13:00) 5.83 (11:40) 0.1 0 0 0 0.1
14-09-2019 24.2 (15:40) 16.9 (00:00) 20.6 9.72 (07:10) 5.28 (15:50) 9.2 0 9.2 0 0
13-09-2019 23.1 (12:20) 19 (00:00) 21.1 16.39 (11:30) 8.61 (11:30) 17.5 0 14.8 1.2 1.5
12-09-2019 25.2 (17:20) 17.8 (00:00) 21.5 15.28 (03:00) 8.33 (03:00) -- 9.8 -- 0.1 0
11-09-2019 21.5 (17:30) 14.3 (00:00) 17.9 13.06 (11:10) 3.89 (08:30) 24 0.2 9.8 12.2 1.8
10-09-2019 27.5 (15:20) 17.2 (23:59) 22.4 9.17 (14:20) 3.61 (08:30) 0 0 0 0 0
09-09-2019 32.6 (17:50) 19.5 (07:30) 26 8.33 (19:00) 4.17 (16:10) 0 0 0 0 0
08-09-2019 27 (13:10) 18.5 (00:00) 22.8 8.89 (18:20) 4.72 (15:40) 0 0 0 0 0
07-09-2019 25.1 (17:30) 18.6 (00:00) 21.9 7.22 (15:20) 3.89 (15:40) 22.8 0 22.7 0.1 0
06-09-2019 25.5 (14:20) 18.1 (00:00) 21.8 7.5 (18:40) 3.89 (17:30) 0 0 0 0 0
05-09-2019 28.4 (14:00) 21.3 (00:00) 24.8 8.61 (16:20) 4.44 (17:00) 0 0 0 0 0
04-09-2019 29.6 (13:20) 21.9 (00:00) 25.8 7.5 (18:30) 3.89 (18:50) 0 0 0 0 0
03-09-2019 29 (13:00) 20.6 (00:00) 24.8 9.17 (17:30) 4.44 (17:30) 0 0 0 0 0
02-09-2019 27.1 (15:30) 20.2 (00:00) 23.7 7.78 (19:00) 3.89 (18:40) 2.3 0.7 1.6 0 0
01-09-2019 31.9 (18:20) 19.3 (00:00) 25.6 9.17 (15:30) 5.28 (15:30) 0 0 0 0 0
31-08-2019 31.5 (16:30) 20.6 (00:00) 26.1 8.33 (16:30) 3.89 (18:10) 0 0 0 0 0
30-08-2019 30.8 (12:40) 20.4 (00:00) 25.6 8.89 (16:00) 5 (18:00) 0 0 0 0 0
29-08-2019 29.6 (12:50) 20.2 (00:00) 24.9 10 (16:40) 5.28 (16:30) 0 0 0 0 0
28-08-2019 29.8 (14:40) 18.1 (00:00) 23.9 6.67 (19:20) 3.89 (18:40) 0 0 0 0 0
27-08-2019 28 (17:00) 17.7 (00:00) 22.9 7.78 (03:40) 3.33 (17:30) 3 2.9 0 0 0.1
26-08-2019 28.5 (15:30) 20.2 (00:00) 24.4 10.83 (13:40) 6.67 (13:40) 1.4 0 0 0 1.4
25-08-2019 29.7 (16:10) 19.8 (00:00) 24.8 8.61 (17:00) 4.44 (16:30) 0 0 0 0 0
24-08-2019 29.8 (15:10) 18.8 (00:00) 24.3 7.78 (17:10) 3.89 (16:50) 0 0 0 0 0
23-08-2019 30.5 (14:00) 20.1 (00:00) 25.3 8.06 (16:20) 4.44 (16:10) 0 0 0 0 0
22-08-2019 29.5 (15:00) 18.7 (00:00) 24.1 8.89 (19:00) 4.72 (18:30) 0 0 0 0 0
21-08-2019 27.3 (17:30) 21.4 (00:00) 24.3 6.94 (12:00) 3.89 (10:40) 0 0 0 0 0

Gráficas

Temp. máximas Temp. mínimas Temp. medias Precipitaciones Rachas de viento máximas Velocidades máximas media en intervalos de 10 minutos

Datos horarios

Fecha y hora oficial Temperatura (ºC) Velocidad del viento (km/h) Dirección del viento Racha (km/h) Dirección de racha Precipitación (mm) Presión (hPa) Tendencia (hPa) Humedad (%)
2019-09-19 23:00:00 20.9 0 Calma -- -- 0 -- -- 77
2019-09-19 22:00:00 21.5 0 Calma 5 Nordeste 0 -- -- 76
2019-09-19 21:00:00 22.1 4 Nordeste 10 Nordeste 0 -- -- 75
2019-09-19 20:00:00 23 5 Este 14 Nordeste 0 -- -- 70
2019-09-19 19:00:00 24.1 9 Este 20 Este 0 -- -- 64
2019-09-19 18:00:00 24.7 12 Este 22 Este 0 -- -- 61
2019-09-19 17:00:00 26.2 9 Nordeste 19 Nordeste 0 -- -- 56
2019-09-19 16:00:00 26.1 11 Este 19 Este 0 -- -- 56
2019-09-19 15:00:00 25.9 9 Nordeste 20 Este 0 -- -- 56
2019-09-19 14:00:00 26.1 7 Nordeste 17 Nordeste 0 -- -- 53
2019-09-19 13:00:00 25.6 9 Nordeste 18 Nordeste 0 -- -- 55
2019-09-19 12:00:00 25 4 Nordeste 14 Este 0 -- -- 54
2019-09-19 11:00:00 23.4 0 Calma 14 Sudoeste 0 -- -- 55
2019-09-19 10:00:00 20.9 3 Sudoeste 17 Sudoeste 0 -- -- 63
2019-09-19 09:00:00 19.1 0 Calma -- -- 0 -- -- 76
2019-09-19 08:00:00 18.1 0 Calma -- -- 0 -- -- 77
2019-09-19 07:00:00 19.3 0 Calma -- -- 0 -- -- 76
2019-09-19 06:00:00 19.5 3 Sudoeste 19 Sudoeste 0 -- -- 77
2019-09-19 05:00:00 20.1 2 Sudoeste 13 Sudoeste 0 -- -- 77
2019-09-19 04:00:00 19.8 2 Sudoeste 12 Sudoeste 0 -- -- 78
2019-09-19 03:00:00 19.2 0 Calma -- -- 0 -- -- 79
2019-09-19 02:00:00 20.8 0 Calma 8 Sudoeste 0 -- -- 78
2019-09-19 01:00:00 20.9 0 Calma 4 Sudoeste 0 -- -- 78
2019-09-19 00:00:00 21.2 0 Calma 3 Sudoeste 0 -- -- 78
2019-09-18 23:00:00 21.3 0 Calma -- -- 0 -- -- 78
2019-09-18 22:00:00 21.8 0 Calma 11 Norte 0 -- -- 78
2019-09-18 21:00:00 22.4 7 Nordeste 12 Nordeste 0 -- -- 75
2019-09-18 20:00:00 23.7 9 Nordeste 21 Este 0 -- -- 55
2019-09-18 19:00:00 25.1 13 Este 26 Este 0 -- -- 48
2019-09-18 18:00:00 26.9 14 Este 25 Este 0 -- -- 44
2019-09-18 17:00:00 27.5 13 Este 25 Este 0 -- -- 44
2019-09-18 16:00:00 27.5 14 Este 30 Este 0 -- -- 43
2019-09-18 15:00:00 27.8 11 Este 23 Este 0 -- -- 43
2019-09-18 14:00:00 27.7 12 Este 23 Este 0 -- -- 43
2019-09-18 13:00:00 28.8 5 Nordeste 13 Nordeste 0 -- -- 41
2019-09-18 12:00:00 27.8 0 Calma -- -- 0 -- -- 43
2019-09-18 11:00:00 25.7 3 Sudoeste 21 Sudoeste 0 -- -- 50
2019-09-18 10:00:00 23.1 11 Sudoeste 26 Sudoeste 0 -- -- 58
2019-09-18 09:00:00 21.3 5 Sudoeste 21 Sudoeste 0 -- -- 68
2019-09-18 08:00:00 20.3 0 Calma 18 Sudoeste 0 -- -- 69
2019-09-18 07:00:00 19.8 3 Sudoeste 12 Sudoeste 0 -- -- 72
2019-09-18 06:00:00 19.5 0 Calma 13 Sudoeste 0 -- -- 75
2019-09-18 05:00:00 19.9 0 Calma 8 Sudoeste 0 -- -- 75
2019-09-18 04:00:00 19.9 0 Calma 8 Sudoeste 0 -- -- 78
2019-09-18 03:00:00 20.2 0 Calma -- -- 0 -- -- 80
2019-09-18 02:00:00 20.2 0 Calma -- -- 0 -- -- 79
2019-09-18 01:00:00 20.2 0 Calma -- -- 0 -- -- 78
2019-09-18 00:00:00 20.8 0 Calma -- -- 0 -- -- 78
2019-09-17 23:00:00 21.6 0 Calma 4 Oeste 0 -- -- 78
2019-09-17 22:00:00 21.5 0 Calma 2 Noroeste 0 -- -- 77
2019-09-17 21:00:00 21.8 0 Calma 5 Nordeste 0 -- -- 75
2019-09-15 18:00:00 23.8 16 Nordeste 29 Nordeste 0 -- -- 72
2019-09-15 17:00:00 23.9 17 Nordeste 33 Nordeste 0 -- -- 69
2019-09-15 16:00:00 24.2 18 Nordeste 36 Norte 0 -- -- 67
2019-09-15 15:00:00 24.9 20 Nordeste 39 Nordeste 0 -- -- 64
2019-09-15 14:00:00 24.7 17 Nordeste 36 Nordeste 0 -- -- 63
2019-09-15 13:00:00 23.5 15 Nordeste 39 Norte 0 -- -- 65
2019-09-15 12:00:00 23.1 17 Nordeste 37 Norte 0 -- -- 67
2019-09-15 11:00:00 22.9 15 Nordeste 32 Nordeste 0 -- -- 70
2019-09-15 10:00:00 22.6 10 Nordeste 35 Norte 0 -- -- 73
2019-09-15 09:00:00 22.2 12 Norte 27 Nordeste 0 -- -- 72
2019-09-15 08:00:00 22 13 Nordeste 28 Nordeste 0 -- -- 72
2019-09-15 07:00:00 21.9 12 Nordeste 28 Norte 0 -- -- 72
2019-09-15 06:00:00 21.7 6 Norte 29 Norte 0 -- -- 73
2019-09-15 05:00:00 22.1 9 Norte 27 Nordeste 0 -- -- 75
2019-09-15 04:00:00 22 9 Norte 23 Nordeste 0 -- -- 76
2019-09-15 03:00:00 22 0 Calma 19 Nordeste 0 -- -- 74
2019-09-15 02:00:00 22.3 0 Calma 17 Nordeste 0 -- -- 76
2019-09-15 01:00:00 22.1 0 Calma -- -- 0 -- -- 76
2019-09-15 00:00:00 22.2 0 Calma 12 Nordeste 0 -- -- 76
2019-09-14 23:00:00 22.3 2 Nordeste 17 Nordeste 0 -- -- 76
2019-09-14 22:00:00 22.4 0 Calma 17 Nordeste 0 -- -- 76
2019-09-14 21:00:00 22.5 9 Nordeste 21 Nordeste 0 -- -- 75
2019-09-14 20:00:00 22.6 5 Norte 22 Nordeste 0 -- -- 75
2019-09-14 19:00:00 22.8 8 Nordeste 23 Nordeste 0 -- -- 74
2019-09-14 18:00:00 22.8 11 Nordeste 25 Nordeste 0 -- -- 72
2019-09-14 17:00:00 23 15 Nordeste 34 Nordeste 0 -- -- 66
2019-09-14 16:00:00 23.5 17 Nordeste 34 Norte 0 -- -- 60
2019-09-14 15:00:00 23.8 16 Nordeste 30 Nordeste 0 -- -- 60
2019-09-14 14:00:00 23.3 13 Nordeste 26 Nordeste 0 -- -- 57
2019-09-14 13:00:00 23.6 5 Nordeste 21 Este 0 -- -- 55
2019-09-14 12:00:00 22.3 0 Calma 10 Sudoeste 0 -- -- 60
2019-09-14 11:00:00 19.6 4 Sudoeste 15 Sudoeste 0 -- -- 74
2019-09-14 10:00:00 17.9 0 Calma 12 Noroeste 0 -- -- 80
2019-09-14 09:00:00 17.3 0 Calma 25 Norte 0.2 -- -- 80
2019-09-14 08:00:00 16.9 12 Norte 35 Sudoeste 6.8 -- -- 80
2019-09-14 07:00:00 18.4 13 Sudoeste 28 Sudoeste 2.2 -- -- 78
2019-09-14 06:00:00 18.7 0 Calma 6 Sudoeste 0 -- -- 80
2019-09-14 05:00:00 18.7 0 Calma 9 Sudoeste 0 -- -- 80
2019-09-14 04:00:00 18.8 3 Sudoeste 17 Sudoeste 0 -- -- 81
2019-09-14 03:00:00 18.5 0 Calma -- -- 0 -- -- 81
2019-09-14 02:00:00 18.7 0 Calma -- -- 0 -- -- 81
2019-09-14 01:00:00 19 0 Calma -- -- 0 -- -- 80
2019-09-14 00:00:00 19.4 0 Calma -- -- 0 -- -- 80
2019-09-13 23:00:00 19.5 0 Calma 11 Norte 0 -- -- 80
2019-09-13 22:00:00 19.3 0 Calma 7 Sudoeste 0 -- -- 79
2019-09-13 21:00:00 19.8 0 Calma 16 Nordeste 0 -- -- 79
2019-09-13 20:00:00 20.2 12 Nordeste 33 Este 1.4 -- -- 78
2019-09-13 19:00:00 21.4 13 Nordeste 33 Norte 0.1 -- -- 77
2019-09-13 18:00:00 21.6 10 Nordeste 27 Este 0.1 -- -- 76
2019-09-13 17:00:00 21.3 15 Nordeste 26 Nordeste 0.4 -- -- 76
2019-09-13 16:00:00 21.6 9 Nordeste 27 Nordeste 0 -- -- 75
2019-09-13 15:00:00 22.1 8 Nordeste 24 Nordeste 0 -- -- 74
2019-09-13 14:00:00 21.4 13 Nordeste 42 Este 0.7 -- -- 75
2019-09-13 13:00:00 22.6 23 Este 44 Este 0 -- -- 73
2019-09-13 12:00:00 21.1 24 Nordeste 59 Este 0 -- -- 80
2019-09-13 11:00:00 20.7 25 Nordeste 46 Este 7.8 -- -- 83
2019-09-13 10:00:00 20.6 28 Nordeste 51 Nordeste 5 -- -- 82
2019-09-13 09:00:00 21 25 Nordeste 46 Nordeste 1.9 -- -- 78
2019-09-13 08:00:00 22.7 23 Nordeste 44 Nordeste 0 -- -- 65
2019-09-13 07:00:00 21.8 16 Nordeste 32 Norte 0.1 -- -- 69
2019-09-13 06:00:00 22 16 Nordeste 31 Nordeste 0 -- -- 67
2019-09-13 05:00:00 22 13 Nordeste 27 Noroeste 0 -- -- 66
2019-09-13 04:00:00 22.1 7 Norte 20 Nordeste 0 -- -- 66
2019-09-13 03:00:00 22.2 11 Nordeste 26 Norte 0 -- -- 65
2019-09-13 02:00:00 21.9 11 Nordeste 21 Nordeste 0 -- -- 66
2019-09-13 01:00:00 21.7 6 Nordeste 21 Nordeste 0 -- -- 65
2019-09-13 00:00:00 21.7 11 Nordeste 22 Nordeste 0 -- -- 63
2019-09-12 23:00:00 22 11 Nordeste 23 Nordeste 0 -- -- 61
2019-09-12 22:00:00 22 12 Nordeste 22 Nordeste 0 -- -- 61
2019-09-12 21:00:00 21.9 12 Nordeste 23 Nordeste 0 -- -- 60
2019-09-12 20:00:00 22.6 13 Nordeste 28 Nordeste 0 -- -- 56
2019-09-12 19:00:00 23.4 16 Nordeste 37 Nordeste 0 -- -- 53
2019-09-12 18:00:00 24.5 20 Nordeste 36 Nordeste 0 -- -- 50
2019-09-12 17:00:00 24.6 15 Nordeste 31 Nordeste 0 -- -- 53
2019-09-12 16:00:00 23.6 14 Nordeste 32 Nordeste 0 -- -- 60
2019-09-12 15:00:00 23.4 14 Nordeste 28 Nordeste 0 -- -- 60
2019-09-12 14:00:00 22.2 13 Nordeste 27 Nordeste 0 -- -- 60
2019-09-12 13:00:00 21.6 13 Nordeste 28 Este 0.1 -- -- 79
2019-09-12 12:00:00 19.9 15 Este 28 Nordeste 1.7 -- -- 81
2019-09-12 11:00:00 19.2 16 Nordeste -- -- -- -- -- 81
2019-09-12 10:00:00 19.5 13 Nordeste 40 Nordeste 3.8 -- -- 82
2019-09-12 09:00:00 19.9 18 Nordeste 43 Nordeste 2.5 -- -- 81
2019-09-12 08:00:00 20.6 24 Nordeste 46 Nordeste 1.4 -- -- 73
2019-09-12 07:00:00 20.9 22 Nordeste 45 Este 2.6 -- -- 75
2019-09-12 06:00:00 19.8 15 Nordeste 45 Nordeste 1.6 -- -- 82
2019-09-12 05:00:00 20 27 Nordeste 54 Nordeste 2.7 -- -- 79
2019-09-12 04:00:00 20.7 27 Nordeste 50 Nordeste 2 -- -- 77
2019-09-12 03:00:00 20.1 30 Nordeste 55 Nordeste 2 -- -- 76
2019-09-12 02:00:00 20.4 17 Nordeste 36 Nordeste 1.1 -- -- 75
2019-09-12 01:00:00 20 11 Nordeste 24 Nordeste 0.4 -- -- 76
2019-09-12 00:00:00 17.8 0 Calma 21 Nordeste 1.8 -- -- 78
2019-09-11 23:00:00 18.2 0 Calma 11 Norte 0 -- -- 72
2019-09-11 22:00:00 18 0 Calma 10 Noroeste 0 -- -- 73
2019-09-11 21:00:00 17.7 0 Calma 8 Noroeste 0 -- -- 71
2019-09-11 20:00:00 19.3 0 Calma 20 Norte 0 -- -- 69
2019-09-11 19:00:00 19.6 6 Norte 22 Norte 0 -- -- 69
2019-09-11 18:00:00 20.6 5 Norte 28 Norte 0 -- -- 67
2019-09-11 17:00:00 20.7 6 Norte 28 Norte 0 -- -- 68
2019-09-11 16:00:00 19.4 3 Norte 22 Noroeste 0 -- -- 72
2019-09-11 15:00:00 19.6 4 Norte 19 Noroeste 0.1 -- -- 70
2019-09-11 14:00:00 18.4 0 Calma 30 Norte 0 -- -- 82
2019-09-11 13:00:00 16.4 4 Norte 24 Nordeste 12.1 -- -- 83
2019-09-11 12:00:00 15.9 4 Noroeste 47 Norte 4 -- -- 78
2019-09-11 11:00:00 17 12 Norte 38 Nordeste 0 -- -- 70
2019-09-11 10:00:00 16.2 8 Noroeste 23 Norte 0.4 -- -- 78
2019-09-11 09:00:00 15 8 Sudoeste 33 Sudoeste 0.8 -- -- 80
2019-09-11 08:00:00 14.4 10 Sudoeste 21 Sudoeste 3.2 -- -- 81
2019-09-11 07:00:00 15 0 Calma 8 Sudoeste 1.4 -- -- 76
2019-09-11 06:00:00 16.2 0 Calma 12 Oeste 0 -- -- 67
2019-09-11 05:00:00 16.3 0 Calma 22 Norte 0.2 -- -- 63
2019-09-11 04:00:00 17.9 7 Norte 27 Norte 0 -- -- 49
2019-09-11 03:00:00 17.6 0 Calma 4 Sudoeste 0 -- -- 47
2019-09-11 02:00:00 17.3 2 Norte 10 Norte 0 -- -- 48
2019-09-11 01:00:00 16.7 0 Calma 6 Norte 0 -- -- 47
2019-09-11 00:00:00 17.2 0 Calma 6 Oeste 0 -- -- 45
2019-09-10 23:00:00 19 0 Calma 12 Norte 0 -- -- 41
2019-09-10 22:00:00 19 0 Calma 14 Noroeste 0 -- -- 41
2019-09-10 21:00:00 20 0 Calma 17 Este 0 -- -- 45
2019-09-10 20:00:00 21 11 Nordeste 22 Nordeste 0 -- -- 45
2019-09-10 19:00:00 24.1 7 Norte 26 Norte 0 -- -- 29
2019-09-10 18:00:00 25 10 Norte 28 Norte 0 -- -- 28
2019-09-10 17:00:00 24.7 9 Norte 33 Norte 0 -- -- 28
2019-09-10 16:00:00 26.8 9 Norte 31 Norte 0 -- -- 28
2019-09-10 15:00:00 26.4 8 Norte 33 Noroeste 0 -- -- 28
2019-09-10 14:00:00 26.2 7 Noroeste 26 Norte 0 -- -- 32
2019-09-10 13:00:00 24.4 8 Norte 23 Noroeste 0 -- -- 35
2019-09-10 12:00:00 24.3 5 Nordeste 15 Nordeste 0 -- -- 40
2019-09-10 11:00:00 23.8 6 Nordeste 13 Nordeste 0 -- -- 40
2019-09-10 10:00:00 23.8 0 Calma 18 Sudoeste 0 -- -- 36
2019-09-10 09:00:00 23.1 10 Sudoeste 26 Sudoeste 0 -- -- 34
2019-09-10 08:00:00 23.8 8 Sudoeste 22 Sudoeste 0 -- -- 31
2019-09-10 07:00:00 23.2 9 Sudoeste 18 Sudoeste 0 -- -- 34
2019-09-10 06:00:00 23.8 8 Sudoeste 17 Sudoeste 0 -- -- 37
2019-09-10 05:00:00 25.1 10 Sudoeste 20 Sudoeste 0 -- -- 34
2019-09-10 04:00:00 24.9 8 Sudoeste 23 Sudoeste 0 -- -- 39
2019-09-10 03:00:00 24.6 12 Sudoeste 26 Sudoeste 0 -- -- 43
2019-09-10 02:00:00 25 9 Sudoeste 22 Sudoeste 0 -- -- 45
2019-09-10 01:00:00 24.5 9 Sudoeste 21 Sudoeste 0 -- -- 46
2019-09-10 00:00:00 25 9 Sudoeste 19 Sudoeste 0 -- -- 45
2019-09-09 23:00:00 26.2 10 Sudoeste 24 Sudoeste 0 -- -- 42
2019-09-09 22:00:00 27.5 11 Sudoeste 28 Sudoeste 0 -- -- 39
2019-09-09 21:00:00 28.3 6 Sudoeste 28 Sudoeste 0 -- -- 38
2019-09-09 20:00:00 29.1 6 Sudoeste 28 Sudoeste 0 -- -- 37
2019-09-09 19:00:00 30.4 8 Sudoeste 30 Sudoeste 0 -- -- 35
2019-09-09 18:00:00 32.1 2 Sur 20 Este 0 -- -- 31
2019-09-09 17:00:00 29.9 13 Este 28 Este 0 -- -- 43
2019-09-09 16:00:00 28.8 14 Este 28 Este 0 -- -- 44
2019-09-09 15:00:00 28 13 Este 27 Este 0 -- -- 44
2019-09-09 14:00:00 27.7 10 Este 22 Este 0 -- -- 47
2019-09-09 13:00:00 27.8 7 Este 23 Sudoeste 0 -- -- 45
2019-09-09 12:00:00 26.6 5 Sudoeste 15 Sudoeste 0 -- -- 47
2019-09-09 11:00:00 24 6 Sudoeste 17 Sudoeste 0 -- -- 54
2019-09-09 10:00:00 22.4 7 Sudoeste 14 Sudoeste 0 -- -- 61
2019-09-09 09:00:00 20.8 0 Calma -- -- 0 -- -- 70
2019-09-09 08:00:00 19.9 0 Calma -- -- 0 -- -- 70
2019-09-09 07:00:00 20 0 Calma 7 Sudoeste 0 -- -- 70
2019-09-09 06:00:00 19.8 0 Calma 8 Sudoeste 0 -- -- 71
2019-09-09 05:00:00 20.1 0 Calma -- -- 0 -- -- 72
2019-09-09 04:00:00 20.9 0 Calma 12 Sudoeste 0 -- -- 71
2019-09-09 03:00:00 20.5 0 Calma -- -- 0 -- -- 72
2019-09-09 02:00:00 21.2 0 Calma -- -- 0 -- -- 71
2019-09-09 01:00:00 21.4 0 Calma 7 Sudoeste 0 -- -- 72
2019-09-09 00:00:00 21.2 0 Calma -- -- 0 -- -- 72
2019-09-08 23:00:00 21 0 Calma -- -- 0 -- -- 70
2019-09-08 22:00:00 22 0 Calma 17 Este 0 -- -- 66
2019-09-08 21:00:00 22.4 9 Este 21 Este 0 -- -- 62
2019-09-08 20:00:00 23.5 12 Este 32 Este 0 -- -- 58
2019-09-08 19:00:00 24.7 14 Este 32 Este 0 -- -- 53
2019-09-08 18:00:00 25.4 13 Este 31 Este 0 -- -- 50
2019-09-08 17:00:00 25.4 14 Este 30 Este 0 -- -- 51
2019-09-08 16:00:00 25.7 14 Este 29 Este 0 -- -- 51
2019-09-08 15:00:00 25.7 11 Este 25 Este 0 -- -- 50
2019-09-08 14:00:00 26.5 7 Este 21 Este 0 -- -- 49
2019-09-08 13:00:00 26.3 3 Nordeste 10 Este 0 -- -- 48
2019-09-08 12:00:00 25.7 0 Calma 14 Sudoeste 0 -- -- 50
2019-09-08 11:00:00 23.9 0 Calma 9 Sudoeste 0 -- -- 57
2019-09-08 10:00:00 22.6 0 Calma 0 Calma 0 -- -- 65
2019-09-08 09:00:00 20.4 0 Calma 3 Sudoeste 0 -- -- 76
2019-09-08 08:00:00 18.6 0 Calma 6 Sudoeste 0 -- -- 78
2019-09-08 07:00:00 18.8 0 Calma 9 Sudoeste 0 -- -- 78
2019-09-08 06:00:00 18.7 0 Calma 10 Sudoeste 0 -- -- 78
2019-09-08 05:00:00 18.5 0 Calma 9 Sudoeste 0 -- -- 79
2019-09-08 04:00:00 19.3 0 Calma 9 Sudoeste 0 -- -- 78
2019-09-08 03:00:00 18.9 0 Calma -- -- 0 -- -- 79
2019-09-08 02:00:00 18.8 0 Calma -- -- 0 -- -- 77
2019-09-08 01:00:00 20.1 0 Calma 13 Sudeste 0 -- -- 70
2019-09-08 00:00:00 21.2 0 Calma 13 Este 0 -- -- 68
2019-09-07 23:00:00 20.5 0 Calma 2 Este 0 -- -- 72
2019-09-07 22:00:00 20.7 0 Calma 7 Sudeste 0 -- -- 73
2019-09-07 21:00:00 21.3 0 Calma 14 Sudeste 0 -- -- 69
2019-09-07 20:00:00 22.9 9 Este 19 Este 0 -- -- 63
2019-09-07 19:00:00 23.4 10 Este 24 Este 0 -- -- 60
2019-09-07 18:00:00 24.8 7 Sudeste 23 Sudeste 0 -- -- 55
2019-09-07 17:00:00 24.7 10 Este 23 Este 0 -- -- 56
2019-09-07 16:00:00 24.4 12 Este 26 Este 0 -- -- 55
2019-09-07 15:00:00 24.7 13 Nordeste 25 Nordeste 0 -- -- 55
2019-09-07 14:00:00 23.4 11 Nordeste 23 Este 0 -- -- 60
2019-09-07 13:00:00 21.4 3 Nordeste 8 Nordeste 0.1 -- -- 82
2019-09-07 12:00:00 19.8 0 Calma 14 Este 8.5 -- -- 82
2019-09-07 11:00:00 19.4 8 Este 15 Este 9.2 -- -- 81
2019-09-07 10:00:00 21 0 Calma 12 Noroeste 5 -- -- 80
2019-09-07 09:00:00 20 0 Calma -- -- 0 -- -- 80
2019-09-07 08:00:00 19.1 0 Calma -- -- 0 -- -- 81
2019-09-07 07:00:00 19 0 Calma -- -- 0 -- -- 81
2019-09-07 06:00:00 19.4 0 Calma -- -- 0 -- -- 80
2019-09-07 05:00:00 20 0 Calma -- -- 0 -- -- 80
2019-09-07 04:00:00 18.8 0 Calma -- -- 0 -- -- 80
2019-09-07 03:00:00 18.9 0 Calma -- -- 0 -- -- 79
2019-09-07 02:00:00 19.7 0 Calma -- -- 0 -- -- 79
2019-09-07 01:00:00 19.8 0 Calma -- -- 0 -- -- 79
2019-09-07 00:00:00 20.4 0 Calma -- -- 0 -- -- 79
2019-09-06 23:00:00 20.6 0 Calma -- -- 0 -- -- 78
2019-09-06 22:00:00 21.4 0 Calma -- -- 0 -- -- 75
2019-09-06 21:00:00 22.2 0 Calma 17 Este 0 -- -- 72
2019-09-06 20:00:00 23.4 9 Este 20 Sudeste 0 -- -- 66
2019-09-06 19:00:00 24.1 8 Sudeste 27 Este 0 -- -- 62
2019-09-06 18:00:00 24.8 14 Este 25 Este 0 -- -- 60
2019-09-06 17:00:00 24.2 11 Este 22 Nordeste 0 -- -- 59
2019-09-06 16:00:00 24.2 13 Nordeste 24 Nordeste 0 -- -- 51
2019-09-06 15:00:00 25.1 12 Este 22 Nordeste 0 -- -- 48
2019-09-06 14:00:00 24.9 9 Este 20 Nordeste 0 -- -- 46
2019-09-06 13:00:00 24.5 12 Nordeste 23 Nordeste 0 -- -- 46
2019-09-06 12:00:00 24.2 12 Nordeste 20 Nordeste 0 -- -- 46
2019-09-06 11:00:00 22.9 12 Nordeste 23 Nordeste 0 -- -- 47
2019-09-06 10:00:00 22.7 2 Nordeste 13 Norte 0 -- -- 50
2019-09-06 09:00:00 20.6 0 Calma -- -- 0 -- -- 56
2019-09-06 08:00:00 18.2 0 Calma -- -- 0 -- -- 65
2019-09-06 07:00:00 19.1 0 Calma -- -- 0 -- -- 62
2019-09-06 06:00:00 19.8 0 Calma -- -- 0 -- -- 62
2019-09-06 05:00:00 21.4 0 Calma 10 Nordeste 0 -- -- 62
2019-09-06 04:00:00 21.3 0 Calma 6 Sudoeste 0 -- -- 76
2019-09-06 03:00:00 21.6 0 Calma -- -- 0 -- -- 76
2019-09-06 02:00:00 21.3 0 Calma -- -- 0 -- -- 76
2019-09-06 01:00:00 21.2 0 Calma -- -- 0 -- -- 75
2019-09-06 00:00:00 21.8 0 Calma -- -- 0 -- -- 72
2019-09-05 23:00:00 22.1 0 Calma 6 Nordeste 0 -- -- 70
2019-09-05 22:00:00 21.9 5 Nordeste 11 Sudeste 0 -- -- 69
2019-09-05 21:00:00 23.3 6 Este 16 Este 0 -- -- 62
2019-09-05 20:00:00 24.3 8 Este 24 Este 0 -- -- 54
2019-09-05 19:00:00 25.2 12 Este 29 Este 0 -- -- 47
2019-09-05 18:00:00 26 14 Este 30 Sudeste 0 -- -- 45
2019-09-05 17:00:00 26.2 16 Este 31 Este 0 -- -- 44
2019-09-05 16:00:00 26.7 14 Este 28 Sudeste 0 -- -- 41
2019-09-05 15:00:00 26.8 11 Este 26 Este 0 -- -- 40
2019-09-05 14:00:00 28.4 10 Este 24 Este 0 -- -- 38
2019-09-05 13:00:00 27.5 13 Nordeste 23 Este 0 -- -- 40
2019-09-05 12:00:00 27.3 13 Este 24 Nordeste 0 -- -- 41
2019-09-05 11:00:00 26.3 14 Nordeste 26 Este 0 -- -- 44
2019-09-05 10:00:00 24.8 0 Calma 11 Norte 0 -- -- 58
2019-09-05 09:00:00 23.2 0 Calma 0 Calma 0 -- -- 80
2019-09-05 08:00:00 21.4 0 Calma -- -- 0 -- -- 81
2019-09-05 07:00:00 21.7 0 Calma -- -- 0 -- -- 81
2019-09-05 06:00:00 21.7 0 Calma 0 Calma 0 -- -- 81
2019-09-05 05:00:00 21.7 0 Calma -- -- 0 -- -- 80
2019-09-05 04:00:00 21.9 0 Calma -- -- 0 -- -- 80
2019-09-05 03:00:00 22.2 0 Calma -- -- 0 -- -- 78
2019-09-05 02:00:00 23.1 0 Calma -- -- 0 -- -- 77
2019-09-05 01:00:00 23.7 0 Calma -- -- 0 -- -- 75
2019-09-05 00:00:00 24.3 0 Calma -- -- 0 -- -- 74
2019-09-04 23:00:00 24.6 0 Calma -- -- 0 -- -- 74
2019-09-04 22:00:00 24.9 0 Calma 5 Norte 0 -- -- 65
2019-09-04 21:00:00 25.3 4 Nordeste 13 Este 0 -- -- 64
2019-09-04 20:00:00 26.8 8 Este 23 Este 0 -- -- 56
2019-09-04 19:00:00 27.7 13 Este 27 Este 0 -- -- 50
2019-09-04 18:00:00 28.5 12 Este 26 Este 0 -- -- 50
2019-09-04 17:00:00 28.6 13 Este 26 Este 0 -- -- 52
2019-09-04 16:00:00 28.4 12 Este 26 Este 0 -- -- 55
2019-09-04 15:00:00 29.3 10 Este 20 Este 0 -- -- 54
2019-09-04 14:00:00 27.9 7 Nordeste 14 Norte 0 -- -- 55
2019-09-04 13:00:00 28.2 2 Norte 10 Nordeste 0 -- -- 54
2019-09-04 12:00:00 27.4 0 Calma 9 Norte 0 -- -- 57
2019-09-04 11:00:00 26.7 0 Calma -- -- 0 -- -- 63
2019-09-04 10:00:00 24.5 0 Calma 10 Sudoeste 0 -- -- 73
2019-09-04 09:00:00 23 4 Sudoeste 11 Sudoeste 0 -- -- 77
2019-09-04 08:00:00 22.4 8 Sudoeste 13 Sudoeste 0 -- -- 78
2019-09-04 07:00:00 22.1 0 Calma 0 Calma 0 -- -- 78
2019-09-04 06:00:00 22.4 0 Calma -- -- 0 -- -- 78
2019-09-04 05:00:00 22.8 0 Calma -- -- 0 -- -- 78
2019-09-04 04:00:00 23 0 Calma -- -- 0 -- -- 78
2019-09-04 03:00:00 22.9 0 Calma -- -- 0 -- -- 78
2019-09-04 02:00:00 23.3 0 Calma -- -- 0 -- -- 77
2019-09-04 01:00:00 23.6 0 Calma -- -- 0 -- -- 76
2019-09-04 00:00:00 23.4 0 Calma -- -- 0 -- -- 75
2019-09-03 23:00:00 24 0 Calma -- -- 0 -- -- 72
2019-09-03 22:00:00 24.5 0 Calma -- -- 0 -- -- 69
2019-09-03 21:00:00 25.2 0 Calma 21 Este 0 -- -- 68
2019-09-03 20:00:00 25.9 10 Este 26 Este 0 -- -- 65
2019-09-03 19:00:00 26.5 13 Este 33 Sudeste 0 -- -- 60
2019-09-03 18:00:00 27.3 15 Este 33 Este 0 -- -- 54
2019-09-03 17:00:00 28 12 Este 26 Este 0 -- -- 50
2019-09-03 16:00:00 28.3 12 Este 25 Este 0 -- -- 50
2019-09-03 15:00:00 28.8 9 Este 20 Este 0 -- -- 53
2019-09-03 14:00:00 27.5 8 Nordeste 18 Nordeste 0 -- -- 55
2019-09-03 13:00:00 28.8 8 Nordeste 13 Este 0 -- -- 52
2019-09-03 12:00:00 28.2 0 Calma 9 Sudoeste 0 -- -- 53
2019-09-03 11:00:00 26.4 0 Calma 9 Sudoeste 0 -- -- 62
2019-09-03 10:00:00 24.8 0 Calma 9 Sudoeste 0 -- -- 69
2019-09-03 09:00:00 22.7 3 Sudoeste 8 Sudoeste 0 -- -- 79
2019-09-03 08:00:00 21.7 4 Sudoeste 9 Sudoeste 0 -- -- 80
2019-09-03 07:00:00 21.4 4 Sudoeste 10 Sudoeste 0 -- -- 80
2019-09-03 06:00:00 21.2 6 Sudoeste 12 Sudoeste 0 -- -- 80
2019-09-03 05:00:00 21.2 5 Sudoeste 10 Sudoeste 0 -- -- 80
2019-09-03 04:00:00 21.4 4 Sudoeste 8 Sudoeste 0 -- -- 80
2019-09-03 03:00:00 21 0 Calma 5 Sudoeste 0 -- -- 79
2019-09-03 02:00:00 21.6 2 Sudoeste 8 Sudoeste 0 -- -- 79
2019-09-03 01:00:00 21.8 0 Calma -- -- 0 -- -- 78
2019-09-03 00:00:00 22 0 Calma -- -- 0 -- -- 78
2019-09-02 23:00:00 22.6 0 Calma 6 Este 0 -- -- 77
2019-09-02 22:00:00 23.2 0 Calma 9 Este 0 -- -- 75
2019-09-02 21:00:00 23.7 0 Calma 19 Este 0 -- -- 72
2019-09-02 20:00:00 24.6 12 Este 26 Este 0 -- -- 65
2019-09-02 19:00:00 25.4 14 Este 28 Este 0 -- -- 59
2019-09-02 18:00:00 26.4 10 Este 21 Este 0 -- -- 55
2019-09-02 17:00:00 26.8 10 Este 23 Este 0 -- -- 56
2019-09-02 16:00:00 26.8 10 Este 17 Este 0 -- -- 55
2019-09-02 15:00:00 26.3 0 Calma 11 Nordeste 0 -- -- 58
2019-09-02 14:00:00 25.5 0 Calma 0 Calma 0 -- -- 60
2019-09-02 13:00:00 23.9 0 Calma 12 Este 0 -- -- 66
2019-09-02 12:00:00 23.1 4 Nordeste 12 Nordeste 0 -- -- 70
2019-09-02 11:00:00 22.4 0 Calma -- -- 0 -- -- 75
2019-09-02 10:00:00 20.9 0 Calma 17 Norte 0 -- -- 80
2019-09-02 09:00:00 20.3 4 Norte 14 Nordeste 0 -- -- 81
2019-09-02 08:00:00 20.9 0 Calma 21 Sudeste 0.3 -- -- 81
2019-09-02 07:00:00 20.9 0 Calma -- -- 1.3 -- -- 79
2019-09-02 06:00:00 22 0 Calma -- -- 0.4 -- -- 73
2019-09-02 05:00:00 22.5 0 Calma 17 Norte 0 -- -- 73
2019-09-02 04:00:00 23.5 3 Norte 23 Noroeste 0.3 -- -- 74
2019-09-02 03:00:00 24.6 4 Nordeste 13 Nordeste 0 -- -- 68
2019-09-02 02:00:00 24.8 0 Calma 12 Nordeste 0 -- -- 72
2019-09-02 01:00:00 24.5 0 Calma 0 Calma 0 -- -- 76
2019-09-02 00:00:00 24.7 0 Calma 11 Este 0 -- -- 75
2019-09-01 23:00:00 25.5 0 Calma 17 Este 0 -- -- 71
2019-09-01 22:00:00 25.9 6 Este 28 Norte 0 -- -- 71
2019-09-01 21:00:00 26 8 Norte 29 Nordeste 0 -- -- 71
2019-09-01 20:00:00 26.6 7 Norte 25 Nordeste 0 -- -- 68
2019-09-01 19:00:00 28.4 9 Norte 24 Nordeste 0 -- -- 58
2019-09-01 18:00:00 31.7 13 Este 30 Este 0 -- -- 38
2019-09-01 17:00:00 30.4 15 Este 30 Este 0 -- -- 45
2019-09-01 16:00:00 30 17 Este 33 Este 0 -- -- 47
2019-09-01 15:00:00 30.5 14 Este 29 Este 0 -- -- 43
2019-09-01 14:00:00 31.1 11 Este 24 Este 0 -- -- 41
2019-09-01 13:00:00 31.2 8 Este 18 Este 0 -- -- 40
2019-09-01 12:00:00 30.7 4 Este 12 Este 0 -- -- 40
2019-09-01 11:00:00 29.4 4 Sudeste 13 Sudoeste 0 -- -- 46
2019-09-01 10:00:00 26.3 3 Sudoeste 13 Sudoeste 0 -- -- 51
2019-09-01 09:00:00 22.4 0 Calma -- -- 0 -- -- 64
2019-09-01 08:00:00 20.8 0 Calma 8 Oeste 0 -- -- 65
2019-09-01 07:00:00 21.7 4 Sudoeste 13 Sudoeste 0 -- -- 60
2019-09-01 06:00:00 21.5 0 Calma -- -- 0 -- -- 63
2019-09-01 05:00:00 21.8 0 Calma 9 Sudoeste 0 -- -- 63
2019-09-01 04:00:00 19.4 0 Calma -- -- 0 -- -- 74
2019-09-01 03:00:00 21.3 0 Calma -- -- 0 -- -- 69
2019-09-01 02:00:00 20.9 0 Calma -- -- 0 -- -- 72
2019-09-01 01:00:00 22.5 0 Calma 5 Oeste 0 -- -- 68
2019-09-01 00:00:00 22.2 0 Calma -- -- 0 -- -- 73
2019-08-31 23:00:00 23.3 0 Calma 5 Nordeste 0 -- -- 69
2019-08-31 22:00:00 24.2 4 Nordeste 10 Nordeste 0 -- -- 65
2019-08-31 21:00:00 25.8 7 Este 17 Este 0 -- -- 53
2019-08-31 20:00:00 28.3 8 Este 22 Este 0 -- -- 46
2019-08-31 19:00:00 29.5 13 Este 25 Este 0 -- -- 40
2019-08-31 18:00:00 30.8 14 Este 25 Sudeste 0 -- -- 37
2019-08-31 17:00:00 30.7 13 Este 30 Este 0 -- -- 38
2019-08-31 16:00:00 31.3 12 Este 26 Este 0 -- -- 39
2019-08-31 15:00:00 30.8 13 Este 25 Este 0 -- -- 40
2019-08-31 14:00:00 31 13 Este 23 Este 0 -- -- 39
2019-08-31 13:00:00 31.1 8 Este 19 Este 0 -- -- 38
2019-08-31 12:00:00 30.6 5 Este 13 Sudeste 0 -- -- 40
2019-08-31 11:00:00 28.3 3 Sudoeste 16 Sudoeste 0 -- -- 42
2019-08-31 10:00:00 26 9 Sudoeste 17 Sudoeste 0 -- -- 46
2019-08-31 09:00:00 24 6 Sudoeste 15 Sudoeste 0 -- -- 55
2019-08-31 08:00:00 21.9 6 Sudoeste 13 Sudoeste 0 -- -- 60
2019-08-31 07:00:00 21.6 0 Calma 9 Sudoeste 0 -- -- 63
2019-08-31 06:00:00 21.6 0 Calma -- -- 0 -- -- 64
2019-08-31 05:00:00 22 0 Calma 13 Sudoeste 0 -- -- 69
2019-08-31 04:00:00 20.8 0 Calma -- -- 0 -- -- 78
2019-08-31 03:00:00 22.3 0 Calma -- -- 0 -- -- 77
2019-08-31 02:00:00 23 0 Calma -- -- 0 -- -- 76
2019-08-31 01:00:00 23 0 Calma -- -- 0 -- -- 76
2019-08-31 00:00:00 23.2 0 Calma -- -- 0 -- -- 75
2019-08-30 23:00:00 24.2 0 Calma -- -- 0 -- -- 74
2019-08-30 22:00:00 24.3 0 Calma 7 Nordeste 0 -- -- 72
2019-08-30 21:00:00 25.1 4 Norte 9 Norte 0 -- -- 69
2019-08-30 20:00:00 26.9 3 Este 19 Este 0 -- -- 52
2019-08-30 19:00:00 29 12 Este 28 Este 0 -- -- 46
2019-08-30 18:00:00 29.4 18 Este 32 Este 0 -- -- 44
2019-08-30 17:00:00 29.4 16 Este 31 Este 0 -- -- 48
2019-08-30 16:00:00 29 17 Este 32 Este 0 -- -- 53
2019-08-30 15:00:00 28.7 15 Este 29 Este 0 -- -- 48
2019-08-30 14:00:00 29.4 14 Este 25 Este 0 -- -- 43
2019-08-30 13:00:00 30.1 10 Este 23 Este 0 -- -- 43
2019-08-30 12:00:00 30 7 Este 14 Este 0 -- -- 40
2019-08-30 11:00:00 27.6 3 Sudoeste 14 Sudoeste 0 -- -- 47
2019-08-30 10:00:00 25.5 5 Sudoeste 18 Sur 0 -- -- 54
2019-08-30 09:00:00 23.4 4 Sudoeste 14 Sudoeste 0 -- -- 60
2019-08-30 08:00:00 21.6 0 Calma -- -- 0 -- -- 69
2019-08-30 07:00:00 21.3 0 Calma -- -- 0 -- -- 70
2019-08-30 06:00:00 22.6 0 Calma 13 Sudoeste 0 -- -- 67
2019-08-30 05:00:00 22.1 0 Calma 8 Sudoeste 0 -- -- 72
2019-08-30 04:00:00 22.8 0 Calma 9 Sudoeste 0 -- -- 69
2019-08-30 03:00:00 22.9 0 Calma 10 Sudoeste 0 -- -- 69
2019-08-30 02:00:00 23.1 0 Calma 10 Sudoeste 0 -- -- 71
2019-08-30 01:00:00 23.4 0 Calma -- -- 0 -- -- 72
2019-08-30 00:00:00 23.6 0 Calma 8 Sudoeste 0 -- -- 71
2019-08-29 23:00:00 23.8 0 Calma 8 Norte 0 -- -- 65
2019-08-29 22:00:00 25.2 3 Norte 16 Este 0 -- -- 57
2019-08-29 21:00:00 26 8 Este 25 Este 0 -- -- 53
2019-08-29 20:00:00 27.3 11 Este 30 Este 0 -- -- 50
2019-08-29 19:00:00 28.5 13 Este 28 Este 0 -- -- 45
2019-08-29 18:00:00 28.4 14 Este 31 Este 0 -- -- 44
2019-08-29 17:00:00 29.3 17 Este 36 Este 0 -- -- 47
2019-08-29 16:00:00 27.7 16 Este 33 Este 0 -- -- 55
2019-08-29 15:00:00 29.2 17 Este 30 Este 0 -- -- 50
2019-08-29 14:00:00 28.4 14 Este 23 Este 0 -- -- 49
2019-08-29 13:00:00 29.2 9 Este 18 Este 0 -- -- 48
2019-08-29 12:00:00 28.3 5 Este 16 Nordeste 0 -- -- 46
2019-08-29 11:00:00 27 0 Calma 10 Sudoeste 0 -- -- 50
2019-08-29 10:00:00 24.8 3 Sudoeste 10 Sudoeste 0 -- -- 57
2019-08-29 09:00:00 22.8 0 Calma -- -- 0 -- -- 65
2019-08-29 08:00:00 20.6 0 Calma 5 Sudoeste 0 -- -- 69
2019-08-29 07:00:00 20.6 0 Calma 10 Sudoeste 0 -- -- 70
2019-08-29 06:00:00 20.5 2 Sudoeste 13 Sudoeste 0 -- -- 71
2019-08-29 05:00:00 20.9 0 Calma -- -- 0 -- -- 75
2019-08-29 04:00:00 21.2 0 Calma -- -- 0 -- -- 75
2019-08-29 03:00:00 21.2 0 Calma -- -- 0 -- -- 75
2019-08-29 02:00:00 21.8 0 Calma -- -- 0 -- -- 74
2019-08-29 01:00:00 21.8 0 Calma 0 Calma 0 -- -- 75
2019-08-29 00:00:00 21.6 0 Calma -- -- 0 -- -- 75
2019-08-28 23:00:00 22.4 0 Calma -- -- 0 -- -- 72
2019-08-28 22:00:00 23 0 Calma 8 Nordeste 0 -- -- 67
2019-08-28 21:00:00 23.7 5 Nordeste 17 Este 0 -- -- 63
2019-08-28 20:00:00 25.3 11 Este 24 Este 0 -- -- 57
2019-08-28 19:00:00 26.7 11 Este 23 Este 0 -- -- 48
2019-08-28 18:00:00 28.1 10 Este 21 Este 0 -- -- 40
2019-08-28 17:00:00 28.3 10 Este 21 Este 0 -- -- 40
2019-08-28 16:00:00 29.6 9 Este 19 Este 0 -- -- 37
2019-08-28 15:00:00 29.3 12 Este 20 Nordeste 0 -- -- 38
2019-08-28 14:00:00 29.3 7 Nordeste 17 Nordeste 0 -- -- 38
2019-08-28 13:00:00 28.6 5 Este 16 Este 0 -- -- 40
2019-08-28 12:00:00 28 5 Este 15 Este 0 -- -- 39
2019-08-28 11:00:00 26 3 Sudoeste 16 Sudoeste 0 -- -- 44
2019-08-28 10:00:00 23.6 7 Sudoeste 13 Sudoeste 0 -- -- 51
2019-08-28 09:00:00 21.4 5 Sudoeste 15 Sudoeste 0 -- -- 61
2019-08-28 08:00:00 19.7 0 Calma 12 Sudoeste 0 -- -- 65
2019-08-28 07:00:00 18.5 0 Calma 16 Sudoeste 0 -- -- 75
2019-08-28 06:00:00 18.1 0 Calma 11 Sudoeste 0 -- -- 75
2019-08-28 05:00:00 18.8 0 Calma 12 Sudoeste 0 -- -- 73
2019-08-28 04:00:00 19.3 0 Calma -- -- 0 -- -- 68
2019-08-28 03:00:00 20.1 0 Calma 16 Sudoeste 0 -- -- 66
2019-08-28 02:00:00 20 0 Calma -- -- 0 -- -- 65
2019-08-28 01:00:00 20.3 0 Calma 13 Sudoeste 0 -- -- 64
2019-08-28 00:00:00 20.4 0 Calma 14 Sudoeste 0 -- -- 64
2019-08-27 23:00:00 20.2 0 Calma 12 Sudoeste 0 -- -- 66
2019-08-27 22:00:00 20.1 2 Sudoeste 12 Sudoeste 0 -- -- 69
2019-08-27 21:00:00 21.3 2 Sudoeste 10 Sudoeste 0.1 -- -- 65
2019-08-27 20:00:00 23.2 4 Noroeste 19 Norte 0 -- -- 50
2019-08-27 19:00:00 24.9 7 Norte 23 Nordeste 0 -- -- 55
2019-08-27 18:00:00 26.8 12 Este 23 Nordeste 0 -- -- 51
2019-08-27 17:00:00 27.8 8 Nordeste 17 Nordeste 0 -- -- 48
2019-08-27 16:00:00 27.4 7 Este 15 Nordeste 0 -- -- 48
2019-08-27 15:00:00 26.5 5 Este 13 Este 0 -- -- 50
2019-08-27 14:00:00 26.2 6 Nordeste 14 Nordeste 0 -- -- 53
2019-08-27 13:00:00 24.5 0 Calma -- -- 0 -- -- 57
2019-08-27 12:00:00 22.7 0 Calma 14 Sudoeste 0 -- -- 63
2019-08-27 11:00:00 21.2 0 Calma 16 Sudoeste 0 -- -- 72
2019-08-27 10:00:00 20.1 0 Calma 13 Sudoeste 0 -- -- 77
2019-08-27 09:00:00 19.1 5 Sudoeste 11 Sudoeste 0 -- -- 79
2019-08-27 08:00:00 18.3 0 Calma 12 Sudoeste 0 -- -- 79
2019-08-27 07:00:00 18.3 0 Calma 15 Sudoeste 0 -- -- 77
2019-08-27 06:00:00 17.8 5 Sudoeste 8 Oeste 0 -- -- 79
2019-08-27 05:00:00 17.9 0 Calma 19 Norte 0.7 -- -- 78
2019-08-27 04:00:00 -- 8 Norte 28 Norte 0.9 -- -- --
2019-08-27 03:00:00 23.2 3 Nordeste 16 Nordeste 1.2 -- -- 81
2019-08-27 02:00:00 23.5 0 Calma 4 Norte 0 -- -- 81
2019-08-27 01:00:00 23.5 0 Calma 8 Este 0.1 -- -- 81
2019-08-27 00:00:00 23.6 0 Calma 10 Este 0.3 -- -- 81
2019-08-26 23:00:00 23.6 0 Calma 10 Nordeste 0 -- -- 80
2019-08-26 22:00:00 23.6 2 Nordeste 24 Nordeste 1 -- -- 78
2019-08-26 21:00:00 25.3 0 Calma 18 Este 0.1 -- -- 68
2019-08-26 20:00:00 25.7 9 Este 19 Este 0 -- -- 64
2019-08-26 19:00:00 26 12 Este 22 Este 0 -- -- 62
2019-08-26 18:00:00 26.5 12 Este 22 Este 0 -- -- 60
2019-08-26 17:00:00 27.4 10 Nordeste 22 Este 0 -- -- 58
2019-08-26 16:00:00 27.6 11 Nordeste 22 Este 0 -- -- 55
2019-08-26 15:00:00 27.2 11 Este 21 Nordeste 0 -- -- 56
2019-08-26 14:00:00 26.8 12 Nordeste 39 Este 0 -- -- 55
2019-08-26 13:00:00 26.6 11 Este 21 Este 0 -- -- 56
2019-08-26 12:00:00 26.1 4 Nordeste 17 Nordeste 0 -- -- 58
2019-08-26 11:00:00 26.8 6 Nordeste 15 Este 0 -- -- 59
2019-08-26 10:00:00 24.7 0 Calma 8 Sudoeste 0 -- -- 66
2019-08-26 09:00:00 22.5 0 Calma 5 Sudoeste 0 -- -- 77
2019-08-26 08:00:00 20.5 0 Calma 8 Sudoeste 0 -- -- 78
2019-08-26 07:00:00 20.6 0 Calma 7 Oeste 0 -- -- 78
2019-08-26 06:00:00 21 3 Sudoeste 9 Sudoeste 0 -- -- 78
2019-08-26 05:00:00 21.2 0 Calma 8 Sudoeste 0 -- -- 80
2019-08-26 04:00:00 20.8 0 Calma 8 Sudoeste 0 -- -- 79
2019-08-26 03:00:00 21.1 0 Calma -- -- 0 -- -- 79
2019-08-26 02:00:00 21.5 0 Calma -- -- 0 -- -- 78
2019-08-26 01:00:00 21.7 0 Calma 4 Noroeste 0 -- -- 77
2019-08-26 00:00:00 22.2 0 Calma 0 Calma 0 -- -- 75
2019-08-25 23:00:00 22.6 0 Calma -- -- 0 -- -- 73
2019-08-25 22:00:00 23.2 0 Calma 13 Este 0 -- -- 72
2019-08-25 21:00:00 24.4 7 Este 24 Este 0 -- -- 66
2019-08-25 20:00:00 26 11 Este 27 Este 0 -- -- 56
2019-08-25 19:00:00 27.2 14 Este 31 Este 0 -- -- 48
2019-08-25 18:00:00 27.9 15 Este 31 Sudeste 0 -- -- 48
2019-08-25 17:00:00 28.7 13 Este 31 Este 0 -- -- 46
2019-08-25 16:00:00 29.5 16 Este 30 Este 0 -- -- 44
2019-08-25 15:00:00 29.1 11 Este 28 Sudeste 0 -- -- 46
2019-08-25 14:00:00 29.1 10 Este 25 Este 0 -- -- 47
2019-08-25 13:00:00 29.1 12 Este 20 Este 0 -- -- 43
2019-08-25 12:00:00 28.6 6 Este 15 Este 0 -- -- 48
2019-08-25 11:00:00 27.2 0 Calma 14 Sudoeste 0 -- -- 56
2019-08-25 10:00:00 24.3 5 Sudoeste 18 Sudoeste 0 -- -- 66
2019-08-25 09:00:00 22.8 6 Sudoeste 14 Sudoeste 0 -- -- 73
2019-08-25 08:00:00 21 6 Sudoeste 14 Sudoeste 0 -- -- 75
2019-08-25 07:00:00 20.6 3 Sudoeste 12 Sudoeste 0 -- -- 75
2019-08-25 06:00:00 20.6 5 Sudoeste 14 Sudoeste 0 -- -- 75
2019-08-25 05:00:00 20.9 0 Calma 8 Sudoeste 0 -- -- 80
2019-08-25 04:00:00 20.1 0 Calma -- -- 0 -- -- 80
2019-08-25 03:00:00 20.1 0 Calma -- -- 0 -- -- 80
2019-08-25 02:00:00 20.6 0 Calma -- -- 0 -- -- 79
2019-08-25 01:00:00 21.4 0 Calma -- -- 0 -- -- 78
2019-08-25 00:00:00 22 0 Calma -- -- 0 -- -- 78
2019-08-24 23:00:00 22.6 0 Calma 0 Calma 0 -- -- 77
2019-08-24 22:00:00 23.3 0 Calma 10 Este 0 -- -- 75
2019-08-24 21:00:00 24.4 6 Este 15 Este 0 -- -- 69
2019-08-24 20:00:00 25.8 10 Este 23 Este 0 -- -- 62
2019-08-24 19:00:00 27 11 Este 27 Este 0 -- -- 55
2019-08-24 18:00:00 28.1 12 Este 28 Este 0 -- -- 51
2019-08-24 17:00:00 28.4 12 Este 25 Este 0 -- -- 49
2019-08-24 16:00:00 29 12 Este 27 Este 0 -- -- 47
2019-08-24 15:00:00 29.5 11 Este 22 Este 0 -- -- 45
2019-08-24 14:00:00 29 8 Este 22 Este 0 -- -- 46
2019-08-24 13:00:00 29.3 5 Este 15 Este 0 -- -- 41
2019-08-24 12:00:00 28.1 0 Calma 10 Sudoeste 0 -- -- 44
2019-08-24 11:00:00 26.5 0 Calma 14 Sudoeste 0 -- -- 44
2019-08-24 10:00:00 23.9 6 Sudoeste 16 Sudoeste 0 -- -- 46
2019-08-24 09:00:00 21.8 5 Sudoeste 13 Sudoeste 0 -- -- 54
2019-08-24 08:00:00 20.2 0 Calma 8 Sudoeste 0 -- -- 58
2019-08-24 07:00:00 20 0 Calma -- -- 0 -- -- 58
2019-08-24 06:00:00 20.2 0 Calma -- -- 0 -- -- 63
2019-08-24 05:00:00 20.6 0 Calma 8 Sudoeste 0 -- -- 66
2019-08-24 04:00:00 20.4 0 Calma -- -- 0 -- -- 68
2019-08-24 03:00:00 19.8 0 Calma 9 Sudoeste 0 -- -- 69
2019-08-24 02:00:00 20.4 4 Sudoeste 10 Sudoeste 0 -- -- 67
2019-08-24 01:00:00 20.3 0 Calma -- -- 0 -- -- 73
2019-08-24 00:00:00 20.8 0 Calma -- -- 0 -- -- 73
2019-08-23 23:00:00 21.6 0 Calma 4 Nordeste 0 -- -- 69
2019-08-23 22:00:00 22.6 4 Nordeste 8 Nordeste 0 -- -- 66
2019-08-23 21:00:00 24 5 Este 17 Este 0 -- -- 60
2019-08-23 20:00:00 26 9 Este 24 Este 0 -- -- 51
2019-08-23 19:00:00 27.2 10 Este 28 Este 0 -- -- 47
2019-08-23 18:00:00 28.3 13 Este 28 Este 0 -- -- 41
2019-08-23 17:00:00 28.7 15 Este 29 Este 0 -- -- 39
2019-08-23 16:00:00 29.2 15 Este 24 Este 0 -- -- 35
2019-08-23 15:00:00 30.3 13 Este 25 Este 0 -- -- 31
2019-08-23 14:00:00 30.4 10 Este 22 Este 0 -- -- 34
2019-08-23 13:00:00 29.5 6 Nordeste 21 Nordeste 0 -- -- 34
2019-08-23 12:00:00 28.1 2 Sur 13 Sudoeste 0 -- -- 44
2019-08-23 11:00:00 25.7 5 Sudoeste 19 Sudoeste 0 -- -- 57
2019-08-23 10:00:00 23.6 3 Sudoeste 17 Sudoeste 0 -- -- 63
2019-08-23 09:00:00 22.1 4 Sudoeste 13 Sudoeste 0 -- -- 69
2019-08-23 08:00:00 20.7 3 Sudoeste 11 Sudoeste 0 -- -- 79
2019-08-23 07:00:00 21.1 4 Sudoeste 11 Sudoeste 0 -- -- 79
2019-08-23 06:00:00 21 4 Sudoeste 10 Oeste 0 -- -- 79
2019-08-23 05:00:00 20.8 5 Sudoeste 11 Sudoeste 0 -- -- 79
2019-08-23 04:00:00 20.6 0 Calma -- -- 0 -- -- 78
2019-08-23 03:00:00 20.4 0 Calma -- -- 0 -- -- 79
2019-08-23 02:00:00 20.8 0 Calma -- -- 0 -- -- 78
2019-08-23 01:00:00 21.2 0 Calma -- -- 0 -- -- 78
2019-08-23 00:00:00 21.5 0 Calma -- -- 0 -- -- 78
2019-08-22 23:00:00 22.2 0 Calma -- -- 0 -- -- 76
2019-08-22 22:00:00 23 0 Calma 17 Este 0 -- -- 74
2019-08-22 21:00:00 23.8 11 Este 24 Este 0 -- -- 70
2019-08-22 20:00:00 25.2 13 Este 29 Este 0 -- -- 60
2019-08-22 19:00:00 26.4 16 Este 32 Este 0 -- -- 53
2019-08-22 18:00:00 27.5 15 Este 28 Sudeste 0 -- -- 44
2019-08-22 17:00:00 28.1 15 Este 28 Este 0 -- -- 41
2019-08-22 16:00:00 28.8 14 Este 27 Sudeste 0 -- -- 35
2019-08-22 15:00:00 29.1 12 Este 26 Este 0 -- -- 34
2019-08-22 14:00:00 28.8 8 Este 21 Este 0 -- -- 43
2019-08-22 13:00:00 27.8 9 Nordeste 24 Norte 0 -- -- 43
2019-08-22 12:00:00 27.3 6 Nordeste 16 Nordeste 0 -- -- 43
2019-08-22 11:00:00 26.4 0 Calma 9 Sudoeste 0 -- -- 46
2019-08-22 10:00:00 23.4 3 Sudoeste 13 Sudoeste 0 -- -- 55
2019-08-22 09:00:00 21 0 Calma 17 Sudoeste 0 -- -- 67
2019-08-22 08:00:00 19.3 0 Calma 12 Sudoeste 0 -- -- 77
2019-08-22 07:00:00 18.9 0 Calma -- -- 0 -- -- 78
2019-08-22 06:00:00 19 0 Calma -- -- 0 -- -- 77
2019-08-22 05:00:00 19.7 0 Calma -- -- 0 -- -- 77
2019-08-22 04:00:00 20 0 Calma -- -- 0 -- -- 76
2019-08-22 03:00:00 20.7 0 Calma -- -- 0 -- -- 75
2019-08-22 02:00:00 20.4 0 Calma -- -- 0 -- -- 75
2019-08-22 01:00:00 21.3 0 Calma -- -- 0 -- -- 73
2019-08-22 00:00:00 21.6 0 Calma 4 Sudoeste 0 -- -- 72
2019-08-21 23:00:00 21.6 0 Calma -- -- 0 -- -- 72
2019-08-21 22:00:00 22.6 0 Calma 11 Norte 0 -- -- 69
2019-08-21 21:00:00 23.6 5 Norte 15 Norte 0 -- -- 63
2019-08-21 20:00:00 24.9 4 Este 14 Noroeste 0 -- -- 54
2019-08-21 19:00:00 25.8 6 Norte 17 Este 0 -- -- 50
2019-08-21 18:00:00 26.9 9 Nordeste 18 Nordeste 0 -- -- 46
2019-08-21 17:00:00 26.6 8 Nordeste 19 Nordeste 0 -- -- 47
2019-08-21 16:00:00 27 6 Este 15 Este 0 -- -- 47
2019-08-21 15:00:00 26 8 Nordeste 19 Este 0 -- -- 50
2019-08-21 14:00:00 26 6 Este 20 Este 0 -- -- 52
2019-08-21 13:00:00 26.2 9 Sudeste 25 Este 0 -- -- 48
2019-08-21 12:00:00 25.6 12 Este 25 Este 0 -- -- 51
2019-08-21 11:00:00 26.5 12 Este 23 Este 0 -- -- 53
2019-08-21 10:00:00 24.7 11 Este 21 Este 0 -- -- 60
2019-08-21 09:00:00 24.3 9 Este 18 Nordeste 0 -- -- 62
2019-08-21 08:00:00 23.8 10 Este 20 Este 0 -- -- 63
2019-08-21 07:00:00 23.8 10 Nordeste 19 Este 0 -- -- 63
2019-08-21 06:00:00 23.9 9 Nordeste 19 Nordeste 0 -- -- 63
2019-08-21 05:00:00 23.8 8 Este 22 Nordeste 0 -- -- 63
2019-08-21 04:00:00 24 13 Nordeste 23 Nordeste 0 -- -- 65
2019-08-21 03:00:00 24.4 12 Nordeste 22 Nordeste 0 -- -- 65
2019-08-21 02:00:00 24.5 8 Nordeste 17 Nordeste 0 -- -- 64
2019-08-21 01:00:00 24.6 7 Nordeste 24 Nordeste 0 -- -- 64
2019-08-21 00:00:00 24.7 13 Nordeste 27 Nordeste 0 -- -- 65